T/t Carrazo — 6YSL6 — position and weather

sailwx.info

Track history (hours):
 
Tides and Currents Weather Stations Pressure Air Temp Water Temp Dewpoint Dewpoint Depression Visibility Wind Speed Wind Dir Waves Ship Positions

T/t Carrazo

Last reported at 2017-Sep-19 18:52 UTC. Time now 2017-Sep-19 20:48 UTC.
Position N 25°56' W 080°08'.

Length 9 m.

Type: Pleasure craft. MMSI: 339438000.

Date/timePositionNaut miles runAvg speedWind from/ knotsBaromVisibWave heightAir tempDewpointWater temp
2017-Sep-19 18:52N 25°56' W 080°08'0 0.0
2017-Sep-19 18:25N 25°56' W 080°08'0 0.0
2017-Sep-19 17:55N 25°56' W 080°08'0 0.0
2017-Sep-19 17:28N 25°56' W 080°08'0 0.0
2017-Sep-19 16:58N 25°56' W 080°08'0 0.0
2017-Sep-19 16:25N 25°56' W 080°08'0 0.0
2017-Sep-19 15:58N 25°56' W 080°08'0 0.0
2017-Sep-19 15:13N 25°56' W 080°08'0 0.0
2017-Sep-19 14:58N 25°56' W 080°08'0 0.0
2017-Sep-19 14:28N 25°56' W 080°08'  
2017-Sep-16 23:03N 25°57' W 080°08'2 5.3
2017-Sep-16 22:36N 25°54' W 080°08'110.4
2017-Sep-16 22:29N 25°53' W 080°07'1123.1
2017-Sep-16 22:01N 25°42' W 080°06'6 1.1
2017-Sep-16 16:27N 25°37' W 080°03'2 3.6
2017-Sep-16 15:48N 25°39' W 080°02'1 3.4
2017-Sep-16 15:21N 25°40' W 080°01'1 1.2
2017-Sep-16 14:52N 25°40' W 080°00'1 2.5
2017-Sep-16 14:29N 25°40' W 080°01'4 7.5
2017-Sep-16 14:00N 25°42' W 080°04'610.9
2017-Sep-16 13:29N 25°46' W 080°09'0 0.5
2017-Sep-16 13:00N 25°46' W 080°09'0 0.9
2017-Sep-16 12:30N 25°46' W 080°09'912.4
2017-Sep-16 11:48N 25°54' W 080°08'2 6.7
2017-Sep-16 11:30N 25°56' W 080°08'0 0.7
2017-Sep-16 10:52N 25°56' W 080°08'0 0.0
2017-Sep-16 10:22N 25°56' W 080°08'0 0.0
2017-Sep-16 09:52N 25°56' W 080°08'0 0.0
2017-Sep-16 09:25N 25°56' W 080°08'0 0.0
2017-Sep-16 08:55N 25°56' W 080°08'0 0.0
2017-Sep-16 08:25N 25°56' W 080°08'0 0.0
2017-Sep-16 07:55N 25°56' W 080°08'0 0.0
2017-Sep-16 07:25N 25°56' W 080°08'0 0.0
2017-Sep-16 06:55N 25°56' W 080°08'0 0.0
2017-Sep-16 06:28N 25°56' W 080°08'0 0.0
2017-Sep-16 05:58N 25°56' W 080°08'0 0.0
2017-Sep-16 05:28N 25°56' W 080°08'0 0.0
2017-Sep-16 04:58N 25°56' W 080°08'0 0.0
2017-Sep-16 04:28N 25°56' W 080°08'0 0.0
2017-Sep-16 03:55N 25°56' W 080°08'0 0.0
2017-Sep-16 03:25N 25°56' W 080°08'0 0.0
2017-Sep-16 02:58N 25°56' W 080°08'0 0.0
2017-Sep-16 02:28N 25°56' W 080°08'0 0.0
2017-Sep-16 01:58N 25°56' W 080°08'0 0.0
2017-Sep-16 01:28N 25°56' W 080°08'0 0.0
2017-Sep-16 00:58N 25°56' W 080°08'0 0.0
2017-Sep-16 00:19N 25°56' W 080°08'0 0.0
2017-Sep-15 23:58N 25°56' W 080°08'0 0.0
2017-Sep-15 23:19N 25°56' W 080°08'0 0.0
2017-Sep-15 22:46N 25°56' W 080°08'0 0.0
2017-Sep-15 22:22N 25°56' W 080°08'0 0.0
2017-Sep-15 21:52N 25°56' W 080°08'0 0.0
2017-Sep-15 21:22N 25°56' W 080°08'0 0.0
2017-Sep-15 20:52N 25°56' W 080°08'0 0.0
2017-Sep-15 20:22N 25°56' W 080°08'0 0.0
2017-Sep-15 19:52N 25°56' W 080°08'0 0.0
2017-Sep-15 19:25N 25°56' W 080°08'0 0.0
2017-Sep-15 18:55N 25°56' W 080°08'0 0.0
2017-Sep-15 18:25N 25°56' W 080°08'0 0.0
2017-Sep-15 17:52N 25°56' W 080°08'0 0.0
2017-Sep-15 17:25N 25°56' W 080°08'0 0.0
2017-Sep-15 16:55N 25°56' W 080°08'0 0.0
2017-Sep-15 16:28N 25°56' W 080°08'0 0.0
2017-Sep-15 15:58N 25°56' W 080°08'0 0.0
2017-Sep-15 15:28N 25°56' W 080°08'0 0.0
2017-Sep-15 14:58N 25°56' W 080°08'0 0.0
2017-Sep-15 14:28N 25°56' W 080°08'0 0.0
2017-Sep-15 13:58N 25°56' W 080°08'0 0.0
2017-Sep-15 13:28N 25°56' W 080°08'0 0.0
2017-Sep-15 12:58N 25°56' W 080°08'0 0.0
2017-Sep-15 12:28N 25°56' W 080°08'0 0.0
2017-Sep-15 11:58N 25°56' W 080°08'0 0.0
2017-Sep-15 11:28N 25°56' W 080°08'0 0.0
2017-Sep-15 10:58N 25°56' W 080°08'0 0.0
2017-Sep-15 10:28N 25°56' W 080°08'0 0.0
2017-Sep-15 09:49N 25°56' W 080°08'0 0.0
2017-Sep-15 09:19N 25°56' W 080°08'0 0.0
2017-Sep-15 08:49N 25°56' W 080°08'0 0.0
2017-Sep-15 08:22N 25°56' W 080°08'0 0.0
2017-Sep-15 07:52N 25°56' W 080°08'0 0.0
2017-Sep-15 07:22N 25°56' W 080°08'0 0.0
2017-Sep-15 06:52N 25°56' W 080°08'0 0.0
2017-Sep-15 06:22N 25°56' W 080°08'0 0.0
2017-Sep-15 05:52N 25°56' W 080°08'0 0.0
2017-Sep-15 05:25N 25°56' W 080°08'0 0.0
2017-Sep-15 04:55N 25°56' W 080°08'0 0.0
2017-Sep-15 04:25N 25°56' W 080°08'0 0.0
2017-Sep-15 03:55N 25°56' W 080°08'0 0.0
2017-Sep-15 03:25N 25°56' W 080°08'0 0.0
2017-Sep-15 02:55N 25°56' W 080°08'0 0.0
2017-Sep-15 02:28N 25°56' W 080°08'0 0.0
2017-Sep-15 01:58N 25°56' W 080°08'0 0.0
2017-Sep-15 01:28N 25°56' W 080°08'0 0.0
2017-Sep-15 00:58N 25°56' W 080°08'0 0.0
2017-Sep-15 00:28N 25°56' W 080°08'0 0.0
2017-Sep-14 23:58N 25°56' W 080°08'0 0.0
2017-Sep-14 22:55N 25°56' W 080°08'0 0.0
2017-Sep-14 22:28N 25°56' W 080°08'0 0.0
2017-Sep-14 21:58N 25°56' W 080°08'0 0.0
2017-Sep-14 21:28N 25°56' W 080°08'0 0.0
2017-Sep-14 20:58N 25°56' W 080°08'0 0.0
2017-Sep-14 20:28N 25°56' W 080°08'0 0.0
2017-Sep-14 19:58N 25°56' W 080°08'0 0.0
2017-Sep-14 19:19N 25°56' W 080°08'0 0.0
2017-Sep-14 18:46N 25°56' W 080°08'0 0.0
2017-Sep-14 18:22N 25°56' W 080°08'0 0.0
2017-Sep-14 17:52N 25°56' W 080°08'  
Track history (hours):
 
Tides and Currents Weather Stations Pressure Air Temp Water Temp Dewpoint Dewpoint Depression Visibility Wind Speed Wind Dir Waves Ship Positions

T/t Carrazo

Last reported at 2017-Sep-19 18:52 UTC. Time now 2017-Sep-19 20:48 UTC.
Position N 25°56' W 080°08'.

Length 9 m.

Type: Pleasure craft. MMSI: 339438000.

Date/timePositionNaut miles runAvg speedWind from/ knotsBaromVisibWave heightAir tempDewpointWater temp
2017-Sep-19 18:52N 25°56' W 080°08'0 0.0
2017-Sep-19 18:25N 25°56' W 080°08'0 0.0
2017-Sep-19 17:55N 25°56' W 080°08'0 0.0
2017-Sep-19 17:28N 25°56' W 080°08'0 0.0
2017-Sep-19 16:58N 25°56' W 080°08'0 0.0
2017-Sep-19 16:25N 25°56' W 080°08'0 0.0
2017-Sep-19 15:58N 25°56' W 080°08'0 0.0
2017-Sep-19 15:13N 25°56' W 080°08'0 0.0
2017-Sep-19 14:58N 25°56' W 080°08'0 0.0
2017-Sep-19 14:28N 25°56' W 080°08'  
2017-Sep-16 23:03N 25°57' W 080°08'2 5.3
2017-Sep-16 22:36N 25°54' W 080°08'110.4
2017-Sep-16 22:29N 25°53' W 080°07'1123.1
2017-Sep-16 22:01N 25°42' W 080°06'6 1.1
2017-Sep-16 16:27N 25°37' W 080°03'2 3.6
2017-Sep-16 15:48N 25°39' W 080°02'1 3.4
2017-Sep-16 15:21N 25°40' W 080°01'1 1.2
2017-Sep-16 14:52N 25°40' W 080°00'1 2.5
2017-Sep-16 14:29N 25°40' W 080°01'4 7.5
2017-Sep-16 14:00N 25°42' W 080°04'610.9
2017-Sep-16 13:29N 25°46' W 080°09'0 0.5
2017-Sep-16 13:00N 25°46' W 080°09'0 0.9
2017-Sep-16 12:30N 25°46' W 080°09'912.4
2017-Sep-16 11:48N 25°54' W 080°08'2 6.7
2017-Sep-16 11:30N 25°56' W 080°08'0 0.7
2017-Sep-16 10:52N 25°56' W 080°08'0 0.0
2017-Sep-16 10:22N 25°56' W 080°08'0 0.0
2017-Sep-16 09:52N 25°56' W 080°08'0 0.0
2017-Sep-16 09:25N 25°56' W 080°08'0 0.0
2017-Sep-16 08:55N 25°56' W 080°08'0 0.0
2017-Sep-16 08:25N 25°56' W 080°08'0 0.0
2017-Sep-16 07:55N 25°56' W 080°08'0 0.0
2017-Sep-16 07:25N 25°56' W 080°08'0 0.0
2017-Sep-16 06:55N 25°56' W 080°08'0 0.0
2017-Sep-16 06:28N 25°56' W 080°08'0 0.0
2017-Sep-16 05:58N 25°56' W 080°08'0 0.0
2017-Sep-16 05:28N 25°56' W 080°08'0 0.0
2017-Sep-16 04:58N 25°56' W 080°08'0 0.0
2017-Sep-16 04:28N 25°56' W 080°08'0 0.0
2017-Sep-16 03:55N 25°56' W 080°08'0 0.0
2017-Sep-16 03:25N 25°56' W 080°08'0 0.0
2017-Sep-16 02:58N 25°56' W 080°08'0 0.0
2017-Sep-16 02:28N 25°56' W 080°08'0 0.0
2017-Sep-16 01:58N 25°56' W 080°08'0 0.0
2017-Sep-16 01:28N 25°56' W 080°08'0 0.0
2017-Sep-16 00:58N 25°56' W 080°08'0 0.0
2017-Sep-16 00:19N 25°56' W 080°08'0 0.0
2017-Sep-15 23:58N 25°56' W 080°08'0 0.0
2017-Sep-15 23:19N 25°56' W 080°08'0 0.0
2017-Sep-15 22:46N 25°56' W 080°08'0 0.0
2017-Sep-15 22:22N 25°56' W 080°08'0 0.0
2017-Sep-15 21:52N 25°56' W 080°08'0 0.0
2017-Sep-15 21:22N 25°56' W 080°08'0 0.0
2017-Sep-15 20:52N 25°56' W 080°08'0 0.0
2017-Sep-15 20:22N 25°56' W 080°08'0 0.0
2017-Sep-15 19:52N 25°56' W 080°08'0 0.0
2017-Sep-15 19:25N 25°56' W 080°08'0 0.0
2017-Sep-15 18:55N 25°56' W 080°08'0 0.0
2017-Sep-15 18:25N 25°56' W 080°08'0 0.0
2017-Sep-15 17:52N 25°56' W 080°08'0 0.0
2017-Sep-15 17:25N 25°56' W 080°08'0 0.0
2017-Sep-15 16:55N 25°56' W 080°08'0 0.0
2017-Sep-15 16:28N 25°56' W 080°08'0 0.0
2017-Sep-15 15:58N 25°56' W 080°08'0 0.0
2017-Sep-15 15:28N 25°56' W 080°08'0 0.0
2017-Sep-15 14:58N 25°56' W 080°08'0 0.0
2017-Sep-15 14:28N 25°56' W 080°08'0 0.0
2017-Sep-15 13:58N 25°56' W 080°08'0 0.0
2017-Sep-15 13:28N 25°56' W 080°08'0 0.0
2017-Sep-15 12:58N 25°56' W 080°08'0 0.0
2017-Sep-15 12:28N 25°56' W 080°08'0 0.0
2017-Sep-15 11:58N 25°56' W 080°08'0 0.0
2017-Sep-15 11:28N 25°56' W 080°08'0 0.0
2017-Sep-15 10:58N 25°56' W 080°08'0 0.0
2017-Sep-15 10:28N 25°56' W 080°08'0 0.0
2017-Sep-15 09:49N 25°56' W 080°08'0 0.0
2017-Sep-15 09:19N 25°56' W 080°08'0 0.0
2017-Sep-15 08:49N 25°56' W 080°08'0 0.0
2017-Sep-15 08:22N 25°56' W 080°08'0 0.0
2017-Sep-15 07:52N 25°56' W 080°08'0 0.0
2017-Sep-15 07:22N 25°56' W 080°08'0 0.0
2017-Sep-15 06:52N 25°56' W 080°08'0 0.0
2017-Sep-15 06:22N 25°56' W 080°08'0 0.0
2017-Sep-15 05:52N 25°56' W 080°08'0 0.0
2017-Sep-15 05:25N 25°56' W 080°08'0 0.0
2017-Sep-15 04:55N 25°56' W 080°08'0 0.0
2017-Sep-15 04:25N 25°56' W 080°08'0 0.0
2017-Sep-15 03:55N 25°56' W 080°08'0 0.0
2017-Sep-15 03:25N 25°56' W 080°08'0 0.0
2017-Sep-15 02:55N 25°56' W 080°08'0 0.0
2017-Sep-15 02:28N 25°56' W 080°08'0 0.0
2017-Sep-15 01:58N 25°56' W 080°08'0 0.0
2017-Sep-15 01:28N 25°56' W 080°08'0 0.0
2017-Sep-15 00:58N 25°56' W 080°08'0 0.0
2017-Sep-15 00:28N 25°56' W 080°08'0 0.0
2017-Sep-14 23:58N 25°56' W 080°08'0 0.0
2017-Sep-14 22:55N 25°56' W 080°08'0 0.0
2017-Sep-14 22:28N 25°56' W 080°08'0 0.0
2017-Sep-14 21:58N 25°56' W 080°08'0 0.0
2017-Sep-14 21:28N 25°56' W 080°08'0 0.0
2017-Sep-14 20:58N 25°56' W 080°08'0 0.0
2017-Sep-14 20:28N 25°56' W 080°08'0 0.0
2017-Sep-14 19:58N 25°56' W 080°08'0 0.0
2017-Sep-14 19:19N 25°56' W 080°08'0 0.0
2017-Sep-14 18:46N 25°56' W 080°08'0 0.0
2017-Sep-14 18:22N 25°56' W 080°08'0 0.0
2017-Sep-14 17:52N 25°56' W 080°08'  

Dump ship's entire track history